Huvudsida
METAR-TAF:

METAR-TAF

Flygplatser :

Prag, Tjeckien

Prag-Václav Havels flygplats

latitud: 50-06N, longitud: 014-15E, höjd: 365 m

Aktuellt väderrapport

Denna rapport gjordes för 15 timmar och 55 minuter sedan, klockan 15:00 UTC
Vind 6 kt från nord
Temperatur 2°C
Fuktighet 60%
Tryck 1015 hPa
Sikt 10 km eller mer
Inga moln under 1 500 m eller inga cumulonimbus

METAR: LKPR 201500Z 36006KT CAVOK 02/M05 Q1015 NOSIG

Tid: 07:55 (06:55 UTC)

Väderprognos

Denna rapport gjordes för 19 timmar och 55 minuter sedan, klockan 11:00 UTC
Prognos gäller från 20 kl. 12 UTC till 21 kl. 18 UTC
Vind 6 kt från nordost
Sikt 10 km eller mer
Spridda moln på en höjd av 2500 ft
Blir
från 20 kl. 13 UTC till 20 kl. 16 UTC
Sikt 10 km eller mer
Inga moln under 1 500 m eller inga cumulonimbus
Temporärt
från 20 kl. 17 UTC till 21 kl. 08 UTC
Vind 8 kt från nord

TAF: LKPR 201100Z 2012/2118 05006KT 9999 SCT025 BECMG 2013/2016 CAVOK TEMPO 2017/2108 35008KT

Aktuella väderrapporter och prognoser från 4000 flygplatser (METAR- och TAF-rapporter).

De tillgängliga stationerna syns som gula och röda prickar på kartan.

För musen över prickarna för att se namnen på stationerna.

Klicka sedan för att få väderrapporter och prognoser.

För att ändra kartan: Klicka på de gröna knapparna med ett svart kors på för att zooma in; den gröna knappen med ett streck på för att zooma ut; eller på de gröna pilarna för angränsande kartor.


METAR-TAF: